All Spectrum Aviation - Van Nuys Airport - KVNY

HOME

Condor Squadron KVNY Webcam

Visit our Electronics Store

Condor Squadron Webcam - Van Nuys Airport - KVNY
Picture taken: Mon, 11 Nov 2019 23:46:23 -0800
YouTube Channel!    Latest Timelapse Movie    Full Size Image    Regular Size Image    

2019/11/12 06:51 KVNY 120651Z AUTO 00000KT 6SM HZ CLR 15/12 A3005 RMK AO2 SLP170 T01500122 $

HOME

Condor Squadron KVNY Webcam

Visit our Electronics Store